Texas Instruments ROE 2006-2018 | TXN

Current and historical return on equity (ROE) values for Texas Instruments (TXN) over the last 10 years. Return on equity can be defined as the amount of net income returned as a percentage of shareholders equity. Return on equity measures a corporation's profitability by revealing how much profit a company generates with the money shareholders have invested. Texas Instruments ROE for the three months ending September 30, 2018 was 50.03%.
Texas Instruments ROE - Return on Equity Historical Data
Date TTM Net Income Shareholder's Equity Return on Equity
2018-09-30 $4.69B $10.52B 44.48%
2018-06-30 $4.40B $10.63B 41.31%
2018-03-31 $4.05B $10.64B 37.97%
2017-12-31 $3.68B $10.34B 34.51%
2017-09-30 $4.39B $10.99B 40.97%
2017-06-30 $4.12B $10.71B 39.12%
2017-03-31 $3.88B $10.64B 37.53%
2016-12-31 $3.60B $10.47B 35.50%
2016-09-30 $3.38B $10.29B 33.86%
2016-06-30 $3.16B $9.96B 31.91%
2016-03-31 $3.04B $9.78B 30.48%
2015-12-31 $2.99B $9.95B 29.50%
2015-09-30 $2.96B $9.97B 28.93%
2015-06-30 $2.98B $10.21B 28.73%
2015-03-31 $2.95B $10.37B 28.33%
2014-12-31 $2.78B $10.39B 26.48%
2014-09-30 $2.47B $10.47B 23.31%
2014-06-30 $2.27B $10.47B 21.18%
2014-03-31 $2.25B $10.62B 20.67%
2013-12-31 $2.13B $10.81B 19.37%
2013-09-30 $1.88B $11.05B 17.10%
2013-06-30 $2.03B $11.07B 18.32%
2013-03-31 $1.82B $10.95B 16.39%
2012-12-31 $1.73B $10.96B 15.50%
2012-09-30 $1.76B $11.40B 15.80%
2012-06-30 $1.58B $11.16B 14.32%
2012-03-31 $1.81B $11.07B 16.44%
2011-12-31 $2.20B $10.95B 20.26%
2011-09-30 $2.83B $11.03B 26.36%
2011-06-30 $3.09B $10.90B 29.47%
2011-03-31 $3.18B $10.57B 31.25%
2010-12-31 $3.18B $10.44B 31.87%
2010-09-30 $2.90B $9.96B 29.59%
2010-06-30 $2.60B $9.76B 26.81%
2010-03-31 $2.10B $9.81B 21.97%
2009-12-31 $1.46B $9.72B 15.50%
2009-09-30 $0.92B $9.44B 9.92%
2009-06-30 $0.95B $9.21B 10.01%
2009-03-31 $1.28B $9.21B 13.21%
2008-12-31 $1.92B $9.33B 19.56%
2008-09-30 $2.57B $10.09B 25.74%
2008-06-30 $2.78B $9.98B 27.16%
2008-03-31 $2.80B $9.86B 26.40%
2007-12-31 $2.66B $9.98B 24.22%
2007-09-30 $2.57B $11.14B 22.70%
2007-06-30 $2.50B $11.49B 21.62%
2007-03-31 $4.27B $11.28B 36.01%
2006-12-31 $4.34B $11.36B 36.62%
2006-09-30 $4.33B $12.03B 36.07%
2006-06-30 $4.26B $12.79B 35.60%
2006-03-31 $2.50B $11.24B 21.48%
2005-12-31 $2.32B $11.94B 19.70%
Sector Industry Market Cap Revenue
Computer and Technology Semiconductor - General $90.963B $14.961B
Texas Instruments Incorporated (TI) is a global semiconductor design and manufacturing company that develops analog ICs and embedded processors. By employing the world's brightest minds, TI creates innovations that shape the future of technology. TI is helping approximately 100,000 customers transform the future, today. They produce TI DLP technology and education technology products. Analog products connect the physical and the digital worlds -turning signals like sound, pressure, temperature, humidity and light into digital 1s and 0s to be used by electronic devices - and translating that data back to information we interact with in the real world. Embedded processors are the processing brains of electronics that gather inputs from analog chips and perform computational processing to operate a system. TI DLP? technology powers a range of display and advanced light control applications spanning industrial, enterprise, automotive and consumer market segments, including projectors and cinema technology.
Stock Name Country Market Cap PE Ratio
Intel (INTC) United States $220.302B 10.73
NVIDIA (NVDA) United States $119.892B 30.10
STMicroelectronics (STM) Switzerland $12.651B 10.15
Amtech Systems (ASYS) United States $0.076B 3.92